sensor_id;sensor_type;location;lat;lon;timestamp;temperature;humidity
67093;SHT31;54011;50.772;7.730;2023-04-06T00:02:22;6.14;56.78
67093;SHT31;54011;50.772;7.730;2023-04-06T00:04:50;6.02;57.25
67093;SHT31;54011;50.772;7.730;2023-04-06T00:07:42;6.02;56.94
67093;SHT31;54011;50.772;7.730;2023-04-06T00:10:09;6.35;56.26
67093;SHT31;54011;50.772;7.730;2023-04-06T00:12:43;6.28;56.64
67093;SHT31;54011;50.772;7.730;2023-04-06T00:15:29;6.32;56.24
67093;SHT31;54011;50.772;7.730;2023-04-06T00:17:55;6.05;56.88
67093;SHT31;54011;50.772;7.730;2023-04-06T00:20:21;6.37;55.78
67093;SHT31;54011;50.772;7.730;2023-04-06T00:22:46;6.30;55.82
67093;SHT31;54011;50.772;7.730;2023-04-06T00:25:12;5.94;57.13
67093;SHT31;54011;50.772;7.730;2023-04-06T00:27:38;6.22;55.95
67093;SHT31;54011;50.772;7.730;2023-04-06T00:30:08;6.09;57.02
67093;SHT31;54011;50.772;7.730;2023-04-06T00:32:34;6.28;56.22
67093;SHT31;54011;50.772;7.730;2023-04-06T00:35:02;6.06;56.91
67093;SHT31;54011;50.772;7.730;2023-04-06T00:37:28;5.94;56.97
67093;SHT31;54011;50.772;7.730;2023-04-06T00:39:54;5.70;57.58
67093;SHT31;54011;50.772;7.730;2023-04-06T00:42:21;5.77;57.18
67093;SHT31;54011;50.772;7.730;2023-04-06T00:45:00;5.81;56.85
67093;SHT31;54011;50.772;7.730;2023-04-06T00:47:26;5.83;57.39
67093;SHT31;54011;50.772;7.730;2023-04-06T00:49:53;5.33;58.43
67093;SHT31;54011;50.772;7.730;2023-04-06T00:52:19;5.53;57.72
67093;SHT31;54011;50.772;7.730;2023-04-06T00:54:46;5.78;56.98
67093;SHT31;54011;50.772;7.730;2023-04-06T00:57:13;5.48;58.02
67093;SHT31;54011;50.772;7.730;2023-04-06T00:59:40;5.56;58.06
67093;SHT31;54011;50.772;7.730;2023-04-06T01:02:09;5.67;57.49
67093;SHT31;54011;50.772;7.730;2023-04-06T01:04:41;5.61;57.61
67093;SHT31;54011;50.772;7.730;2023-04-06T01:07:12;5.78;57.48
67093;SHT31;54011;50.772;7.730;2023-04-06T01:09:47;5.54;58.01
67093;SHT31;54011;50.772;7.730;2023-04-06T01:12:19;5.34;58.54
67093;SHT31;54011;50.772;7.730;2023-04-06T01:14:44;5.47;58.25
67093;SHT31;54011;50.772;7.730;2023-04-06T01:17:10;5.48;58.12
67093;SHT31;54011;50.772;7.730;2023-04-06T01:19:36;5.33;58.61
67093;SHT31;54011;50.772;7.730;2023-04-06T01:22:02;5.19;59.23
67093;SHT31;54011;50.772;7.730;2023-04-06T01:24:30;4.95;59.35
67093;SHT31;54011;50.772;7.730;2023-04-06T01:27:05;5.33;59.13
67093;SHT31;54011;50.772;7.730;2023-04-06T01:29:40;5.15;59.42
67093;SHT31;54011;50.772;7.730;2023-04-06T01:32:09;5.53;57.80
67093;SHT31;54011;50.772;7.730;2023-04-06T01:34:42;5.36;58.20
67093;SHT31;54011;50.772;7.730;2023-04-06T01:37:08;5.12;59.17
67093;SHT31;54011;50.772;7.730;2023-04-06T01:39:34;5.12;58.83
67093;SHT31;54011;50.772;7.730;2023-04-06T01:42:02;5.44;58.07
67093;SHT31;54011;50.772;7.730;2023-04-06T01:44:30;5.13;58.95
67093;SHT31;54011;50.772;7.730;2023-04-06T01:47:05;4.96;58.94
67093;SHT31;54011;50.772;7.730;2023-04-06T01:49:31;5.20;58.84
67093;SHT31;54011;50.772;7.730;2023-04-06T01:51:57;5.13;58.83
67093;SHT31;54011;50.772;7.730;2023-04-06T01:54:22;5.22;58.59
67093;SHT31;54011;50.772;7.730;2023-04-06T01:57:01;5.02;58.83
67093;SHT31;54011;50.772;7.730;2023-04-06T01:59:33;4.95;59.32
67093;SHT31;54011;50.772;7.730;2023-04-06T02:02:03;4.65;60.49
67093;SHT31;54011;50.772;7.730;2023-04-06T02:04:30;4.85;60.03
67093;SHT31;54011;50.772;7.730;2023-04-06T02:07:05;4.97;59.41
67093;SHT31;54011;50.772;7.730;2023-04-06T02:09:31;4.99;59.61
67093;SHT31;54011;50.772;7.730;2023-04-06T02:11:57;4.96;59.62
67093;SHT31;54011;50.772;7.730;2023-04-06T02:14:25;5.03;58.68
67093;SHT31;54011;50.772;7.730;2023-04-06T02:16:53;4.96;58.48
67093;SHT31;54011;50.772;7.730;2023-04-06T02:19:19;4.84;59.23
67093;SHT31;54011;50.772;7.730;2023-04-06T02:21:45;4.72;59.36
67093;SHT31;54011;50.772;7.730;2023-04-06T02:24:10;4.57;60.00
67093;SHT31;54011;50.772;7.730;2023-04-06T02:26:36;4.68;59.98
67093;SHT31;54011;50.772;7.730;2023-04-06T02:29:01;4.64;60.17
67093;SHT31;54011;50.772;7.730;2023-04-06T02:31:27;4.57;60.38
67093;SHT31;54011;50.772;7.730;2023-04-06T02:33:53;4.58;59.98
67093;SHT31;54011;50.772;7.730;2023-04-06T02:36:19;4.54;60.22
67093;SHT31;54011;50.772;7.730;2023-04-06T02:38:45;4.58;60.67
67093;SHT31;54011;50.772;7.730;2023-04-06T02:41:11;4.72;60.00
67093;SHT31;54011;50.772;7.730;2023-04-06T02:43:37;4.61;60.67
67093;SHT31;54011;50.772;7.730;2023-04-06T02:46:13;4.55;60.67
67093;SHT31;54011;50.772;7.730;2023-04-06T02:48:39;4.75;60.52
67093;SHT31;54011;50.772;7.730;2023-04-06T02:51:05;4.81;60.82
67093;SHT31;54011;50.772;7.730;2023-04-06T02:53:31;4.58;61.02
67093;SHT31;54011;50.772;7.730;2023-04-06T02:55:57;4.24;61.37
67093;SHT31;54011;50.772;7.730;2023-04-06T02:58:29;4.30;60.92
67093;SHT31;54011;50.772;7.730;2023-04-06T03:00:56;4.21;61.15
67093;SHT31;54011;50.772;7.730;2023-04-06T03:03:22;4.07;61.37
67093;SHT31;54011;50.772;7.730;2023-04-06T03:05:50;3.93;62.03
67093;SHT31;54011;50.772;7.730;2023-04-06T03:08:23;4.20;61.24
67093;SHT31;54011;50.772;7.730;2023-04-06T03:10:49;3.93;61.78
67093;SHT31;54011;50.772;7.730;2023-04-06T03:13:16;3.78;62.60
67093;SHT31;54011;50.772;7.730;2023-04-06T03:15:48;3.96;62.62
67093;SHT31;54011;50.772;7.730;2023-04-06T03:18:21;4.23;61.38
67093;SHT31;54011;50.772;7.730;2023-04-06T03:20:47;3.96;61.98
67093;SHT31;54011;50.772;7.730;2023-04-06T03:23:15;3.92;62.28
67093;SHT31;54011;50.772;7.730;2023-04-06T03:25:43;4.26;61.17
67093;SHT31;54011;50.772;7.730;2023-04-06T03:28:13;4.07;61.80
67093;SHT31;54011;50.772;7.730;2023-04-06T03:30:47;4.09;61.64
67093;SHT31;54011;50.772;7.730;2023-04-06T03:33:16;3.87;62.48
67093;SHT31;54011;50.772;7.730;2023-04-06T03:35:50;3.82;61.91
67093;SHT31;54011;50.772;7.730;2023-04-06T03:38:16;3.71;62.44
67093;SHT31;54011;50.772;7.730;2023-04-06T03:40:42;3.86;62.72
67093;SHT31;54011;50.772;7.730;2023-04-06T03:43:08;3.99;62.06
67093;SHT31;54011;50.772;7.730;2023-04-06T03:45:35;4.07;61.84
67093;SHT31;54011;50.772;7.730;2023-04-06T03:48:01;4.13;61.64
67093;SHT31;54011;50.772;7.730;2023-04-06T03:50:28;4.14;61.32
67093;SHT31;54011;50.772;7.730;2023-04-06T03:52:53;4.00;61.67
67093;SHT31;54011;50.772;7.730;2023-04-06T03:55:19;3.90;61.99
67093;SHT31;54011;50.772;7.730;2023-04-06T03:57:44;3.93;61.98
67093;SHT31;54011;50.772;7.730;2023-04-06T04:00:10;3.86;61.96
67093;SHT31;54011;50.772;7.730;2023-04-06T04:02:39;3.75;62.19
67093;SHT31;54011;50.772;7.730;2023-04-06T04:05:05;3.69;63.17
67093;SHT31;54011;50.772;7.730;2023-04-06T04:07:31;3.45;63.55
67093;SHT31;54011;50.772;7.730;2023-04-06T04:09:56;3.48;63.71
67093;SHT31;54011;50.772;7.730;2023-04-06T04:12:22;3.59;63.60
67093;SHT31;54011;50.772;7.730;2023-04-06T04:14:47;3.55;63.55
67093;SHT31;54011;50.772;7.730;2023-04-06T04:17:13;3.56;63.21
67093;SHT31;54011;50.772;7.730;2023-04-06T04:19:38;3.54;63.10
67093;SHT31;54011;50.772;7.730;2023-04-06T04:22:07;3.08;64.02
67093;SHT31;54011;50.772;7.730;2023-04-06T04:24:37;3.24;63.55
67093;SHT31;54011;50.772;7.730;2023-04-06T04:27:03;3.20;63.80
67093;SHT31;54011;50.772;7.730;2023-04-06T04:29:31;3.39;63.81
67093;SHT31;54011;50.772;7.730;2023-04-06T04:32:01;3.27;63.61
67093;SHT31;54011;50.772;7.730;2023-04-06T04:34:26;3.41;63.68
67093;SHT31;54011;50.772;7.730;2023-04-06T04:36:52;3.04;64.20
67093;SHT31;54011;50.772;7.730;2023-04-06T04:39:28;2.80;64.85
67093;SHT31;54011;50.772;7.730;2023-04-06T04:42:01;2.93;64.39
67093;SHT31;54011;50.772;7.730;2023-04-06T04:44:28;2.94;64.29
67093;SHT31;54011;50.772;7.730;2023-04-06T04:46:53;2.77;64.71
67093;SHT31;54011;50.772;7.730;2023-04-06T04:49:23;2.96;64.40
67093;SHT31;54011;50.772;7.730;2023-04-06T04:51:50;2.75;64.90
67093;SHT31;54011;50.772;7.730;2023-04-06T04:54:33;2.82;64.80
67093;SHT31;54011;50.772;7.730;2023-04-06T04:56:58;2.90;65.12
67093;SHT31;54011;50.772;7.730;2023-04-06T04:59:37;2.96;65.09
67093;SHT31;54011;50.772;7.730;2023-04-06T05:02:11;3.10;64.99
67093;SHT31;54011;50.772;7.730;2023-04-06T05:04:46;2.67;64.88
67093;SHT31;54011;50.772;7.730;2023-04-06T05:07:17;2.97;64.26
67093;SHT31;54011;50.772;7.730;2023-04-06T05:09:44;3.04;64.14
67093;SHT31;54011;50.772;7.730;2023-04-06T05:12:10;2.62;64.79
67093;SHT31;54011;50.772;7.730;2023-04-06T05:14:45;2.60;65.58
67093;SHT31;54011;50.772;7.730;2023-04-06T05:17:14;2.83;65.39
67093;SHT31;54011;50.772;7.730;2023-04-06T05:19:39;2.76;65.02
67093;SHT31;54011;50.772;7.730;2023-04-06T05:22:06;2.75;65.38
67093;SHT31;54011;50.772;7.730;2023-04-06T05:24:34;2.73;65.32
67093;SHT31;54011;50.772;7.730;2023-04-06T05:27:02;2.82;65.29
67093;SHT31;54011;50.772;7.730;2023-04-06T05:29:29;2.71;65.84
67093;SHT31;54011;50.772;7.730;2023-04-06T05:31:54;2.67;65.83
67093;SHT31;54011;50.772;7.730;2023-04-06T05:34:20;2.92;65.27
67093;SHT31;54011;50.772;7.730;2023-04-06T05:36:48;2.86;65.35
67093;SHT31;54011;50.772;7.730;2023-04-06T05:39:17;2.82;65.01
67093;SHT31;54011;50.772;7.730;2023-04-06T05:41:48;2.79;65.28
67093;SHT31;54011;50.772;7.730;2023-04-06T05:44:15;3.04;64.87
67093;SHT31;54011;50.772;7.730;2023-04-06T05:46:50;3.03;65.16
67093;SHT31;54011;50.772;7.730;2023-04-06T05:49:18;3.27;64.88
67093;SHT31;54011;50.772;7.730;2023-04-06T05:51:48;2.99;65.58
67093;SHT31;54011;50.772;7.730;2023-04-06T05:54:17;3.05;65.11
67093;SHT31;54011;50.772;7.730;2023-04-06T05:56:43;3.01;65.39
67093;SHT31;54011;50.772;7.730;2023-04-06T05:59:11;2.99;64.93
67093;SHT31;54011;50.772;7.730;2023-04-06T06:01:36;3.17;64.83
67093;SHT31;54011;50.772;7.730;2023-04-06T06:04:02;3.08;65.10
67093;SHT31;54011;50.772;7.730;2023-04-06T06:06:31;3.15;65.05
67093;SHT31;54011;50.772;7.730;2023-04-06T06:09:21;3.07;66.27
67093;SHT31;54011;50.772;7.730;2023-04-06T06:11:59;3.13;66.18
67093;SHT31;54011;50.772;7.730;2023-04-06T06:14:27;3.38;65.28
67093;SHT31;54011;50.772;7.730;2023-04-06T06:16:55;3.21;66.05
67093;SHT31;54011;50.772;7.730;2023-04-06T06:19:22;3.31;65.16
67093;SHT31;54011;50.772;7.730;2023-04-06T06:21:49;3.55;64.99
67093;SHT31;54011;50.772;7.730;2023-04-06T06:24:15;3.66;64.61
67093;SHT31;54011;50.772;7.730;2023-04-06T06:26:40;3.76;64.56
67093;SHT31;54011;50.772;7.730;2023-04-06T06:29:07;3.75;64.93
67093;SHT31;54011;50.772;7.730;2023-04-06T06:31:35;4.03;64.28
67093;SHT31;54011;50.772;7.730;2023-04-06T06:34:01;4.11;63.54
67093;SHT31;54011;50.772;7.730;2023-04-06T06:36:29;4.40;63.27
67093;SHT31;54011;50.772;7.730;2023-04-06T06:38:56;4.60;62.58
67093;SHT31;54011;50.772;7.730;2023-04-06T06:41:22;4.57;62.83
67093;SHT31;54011;50.772;7.730;2023-04-06T06:43:48;4.45;62.50
67093;SHT31;54011;50.772;7.730;2023-04-06T06:46:13;4.62;61.90
67093;SHT31;54011;50.772;7.730;2023-04-06T06:48:40;4.81;61.55
67093;SHT31;54011;50.772;7.730;2023-04-06T06:51:05;4.71;62.82
67093;SHT31;54011;50.772;7.730;2023-04-06T06:53:31;5.06;61.87
67093;SHT31;54011;50.772;7.730;2023-04-06T06:55:57;5.02;61.95
67093;SHT31;54011;50.772;7.730;2023-04-06T06:58:23;5.03;61.51
67093;SHT31;54011;50.772;7.730;2023-04-06T07:00:48;5.16;61.31
67093;SHT31;54011;50.772;7.730;2023-04-06T07:03:14;5.05;60.85
67093;SHT31;54011;50.772;7.730;2023-04-06T07:05:48;5.56;60.02
67093;SHT31;54011;50.772;7.730;2023-04-06T07:08:21;5.88;58.66
67093;SHT31;54011;50.772;7.730;2023-04-06T07:10:47;6.02;58.62
67093;SHT31;54011;50.772;7.730;2023-04-06T07:13:13;6.21;59.81
67093;SHT31;54011;50.772;7.730;2023-04-06T07:15:44;6.37;57.96
67093;SHT31;54011;50.772;7.730;2023-04-06T07:18:11;6.56;57.15
67093;SHT31;54011;50.772;7.730;2023-04-06T07:20:37;6.91;55.75
67093;SHT31;54011;50.772;7.730;2023-04-06T07:23:02;7.29;54.57
67093;SHT31;54011;50.772;7.730;2023-04-06T07:25:29;7.25;54.74
67093;SHT31;54011;50.772;7.730;2023-04-06T07:27:55;7.48;55.18
67093;SHT31;54011;50.772;7.730;2023-04-06T07:30:22;7.83;53.97
67093;SHT31;54011;50.772;7.730;2023-04-06T07:32:48;8.31;53.17
67093;SHT31;54011;50.772;7.730;2023-04-06T07:35:14;8.38;52.99
67093;SHT31;54011;50.772;7.730;2023-04-06T07:37:40;8.64;51.65
67093;SHT31;54011;50.772;7.730;2023-04-06T07:40:08;9.17;50.76
67093;SHT31;54011;50.772;7.730;2023-04-06T07:42:34;9.59;50.07
67093;SHT31;54011;50.772;7.730;2023-04-06T07:45:00;10.18;48.50
67093;SHT31;54011;50.772;7.730;2023-04-06T07:47:26;10.06;49.68
67093;SHT31;54011;50.772;7.730;2023-04-06T07:49:53;10.36;48.57
67093;SHT31;54011;50.772;7.730;2023-04-06T07:52:19;10.46;47.55
67093;SHT31;54011;50.772;7.730;2023-04-06T07:54:45;10.59;47.78
67093;SHT31;54011;50.772;7.730;2023-04-06T07:57:11;10.55;47.65
67093;SHT31;54011;50.772;7.730;2023-04-06T07:59:36;11.22;47.06
67093;SHT31;54011;50.772;7.730;2023-04-06T08:02:02;11.38;46.50
67093;SHT31;54011;50.772;7.730;2023-04-06T08:04:27;11.17;46.62
67093;SHT31;54011;50.772;7.730;2023-04-06T08:06:53;11.10;47.07
67093;SHT31;54011;50.772;7.730;2023-04-06T08:09:18;11.82;45.72
67093;SHT31;54011;50.772;7.730;2023-04-06T08:11:44;11.79;45.56
67093;SHT31;54011;50.772;7.730;2023-04-06T08:14:11;11.97;45.30
67093;SHT31;54011;50.772;7.730;2023-04-06T08:16:37;12.47;43.99
67093;SHT31;54011;50.772;7.730;2023-04-06T08:19:02;12.69;43.41
67093;SHT31;54011;50.772;7.730;2023-04-06T08:21:28;12.41;42.76
67093;SHT31;54011;50.772;7.730;2023-04-06T08:23:53;12.92;42.07
67093;SHT31;54011;50.772;7.730;2023-04-06T08:26:19;13.64;41.49
67093;SHT31;54011;50.772;7.730;2023-04-06T08:28:45;13.84;41.28
67093;SHT31;54011;50.772;7.730;2023-04-06T08:31:10;13.97;41.34
67093;SHT31;54011;50.772;7.730;2023-04-06T08:33:36;14.39;40.06
67093;SHT31;54011;50.772;7.730;2023-04-06T08:36:10;13.60;40.75
67093;SHT31;54011;50.772;7.730;2023-04-06T08:38:36;14.57;39.88
67093;SHT31;54011;50.772;7.730;2023-04-06T08:41:07;14.11;39.60
67093;SHT31;54011;50.772;7.730;2023-04-06T08:43:37;14.43;38.94
67093;SHT31;54011;50.772;7.730;2023-04-06T08:46:07;14.32;38.93
67093;SHT31;54011;50.772;7.730;2023-04-06T08:48:34;14.73;39.87
67093;SHT31;54011;50.772;7.730;2023-04-06T08:51:00;15.27;38.38
67093;SHT31;54011;50.772;7.730;2023-04-06T08:53:26;15.56;38.16
67093;SHT31;54011;50.772;7.730;2023-04-06T08:55:52;15.83;38.08
67093;SHT31;54011;50.772;7.730;2023-04-06T08:58:17;15.70;37.93
67093;SHT31;54011;50.772;7.730;2023-04-06T09:00:44;15.56;37.59
67093;SHT31;54011;50.772;7.730;2023-04-06T09:03:12;15.93;37.37
67093;SHT31;54011;50.772;7.730;2023-04-06T09:05:38;16.48;36.53
67093;SHT31;54011;50.772;7.730;2023-04-06T09:08:03;16.51;36.45
67093;SHT31;54011;50.772;7.730;2023-04-06T09:10:29;16.51;36.28
67093;SHT31;54011;50.772;7.730;2023-04-06T09:13:05;16.94;35.75
67093;SHT31;54011;50.772;7.730;2023-04-06T09:15:32;17.18;35.99
67093;SHT31;54011;50.772;7.730;2023-04-06T09:17:58;17.46;35.46
67093;SHT31;54011;50.772;7.730;2023-04-06T09:20:24;17.69;35.14
67093;SHT31;54011;50.772;7.730;2023-04-06T09:22:51;18.70;34.51
67093;SHT31;54011;50.772;7.730;2023-04-06T09:25:22;18.02;35.35
67093;SHT31;54011;50.772;7.730;2023-04-06T09:28:02;17.33;36.62
67093;SHT31;54011;50.772;7.730;2023-04-06T09:30:28;17.29;35.87
67093;SHT31;54011;50.772;7.730;2023-04-06T09:32:56;16.48;36.69
67093;SHT31;54011;50.772;7.730;2023-04-06T09:35:23;16.61;36.89
67093;SHT31;54011;50.772;7.730;2023-04-06T09:37:50;17.08;36.76
67093;SHT31;54011;50.772;7.730;2023-04-06T09:40:17;17.02;37.37
67093;SHT31;54011;50.772;7.730;2023-04-06T09:42:48;17.22;37.02
67093;SHT31;54011;50.772;7.730;2023-04-06T09:45:17;18.05;37.48
67093;SHT31;54011;50.772;7.730;2023-04-06T09:47:44;17.67;36.34
67093;SHT31;54011;50.772;7.730;2023-04-06T09:50:11;18.45;35.99
67093;SHT31;54011;50.772;7.730;2023-04-06T09:52:48;16.81;36.84
67093;SHT31;54011;50.772;7.730;2023-04-06T09:55:23;17.35;36.88
67093;SHT31;54011;50.772;7.730;2023-04-06T09:57:55;17.70;36.69
67093;SHT31;54011;50.772;7.730;2023-04-06T10:00:23;17.29;37.13
67093;SHT31;54011;50.772;7.730;2023-04-06T10:06:05;16.86;37.17
67093;SHT31;54011;50.772;7.730;2023-04-06T10:08:35;17.63;37.12
67093;SHT31;54011;50.772;7.730;2023-04-06T10:11:02;17.30;36.92
67093;SHT31;54011;50.772;7.730;2023-04-06T10:13:28;17.51;36.91
67093;SHT31;54011;50.772;7.730;2023-04-06T10:15:54;17.81;36.52
67093;SHT31;54011;50.772;7.730;2023-04-06T10:18:23;16.89;37.01
67093;SHT31;54011;50.772;7.730;2023-04-06T10:23:31;16.95;37.72
67093;SHT31;54011;50.772;7.730;2023-04-06T10:25:59;17.19;36.90
67093;SHT31;54011;50.772;7.730;2023-04-06T10:28:25;16.54;38.45
67093;SHT31;54011;50.772;7.730;2023-04-06T10:30:58;17.13;37.91
67093;SHT31;54011;50.772;7.730;2023-04-06T10:33:24;16.96;37.78
67093;SHT31;54011;50.772;7.730;2023-04-06T10:35:50;16.82;37.66
67093;SHT31;54011;50.772;7.730;2023-04-06T10:38:15;16.89;37.30
67093;SHT31;54011;50.772;7.730;2023-04-06T10:40:46;16.28;38.43
67093;SHT31;54011;50.772;7.730;2023-04-06T10:43:18;17.16;37.66
67093;SHT31;54011;50.772;7.730;2023-04-06T10:45:44;16.76;38.07
67093;SHT31;54011;50.772;7.730;2023-04-06T10:48:18;17.56;37.12
67093;SHT31;54011;50.772;7.730;2023-04-06T10:50:48;17.37;37.20
67093;SHT31;54011;50.772;7.730;2023-04-06T10:53:41;17.39;36.87
67093;SHT31;54011;50.772;7.730;2023-04-06T10:56:10;18.25;36.22
67093;SHT31;54011;50.772;7.730;2023-04-06T10:58:46;18.59;35.51
67093;SHT31;54011;50.772;7.730;2023-04-06T11:01:17;18.42;35.67
67093;SHT31;54011;50.772;7.730;2023-04-06T11:03:47;18.19;36.12
67093;SHT31;54011;50.772;7.730;2023-04-06T11:06:24;18.84;35.40
67093;SHT31;54011;50.772;7.730;2023-04-06T11:08:51;18.41;35.36
67093;SHT31;54011;50.772;7.730;2023-04-06T11:11:18;18.86;35.50
67093;SHT31;54011;50.772;7.730;2023-04-06T11:13:52;18.84;35.10
67093;SHT31;54011;50.772;7.730;2023-04-06T11:16:20;18.43;36.49
67093;SHT31;54011;50.772;7.730;2023-04-06T11:18:58;18.15;36.21
67093;SHT31;54011;50.772;7.730;2023-04-06T11:21:35;18.89;35.87
67093;SHT31;54011;50.772;7.730;2023-04-06T11:26:46;19.83;34.29
67093;SHT31;54011;50.772;7.730;2023-04-06T11:29:15;19.55;34.35
67093;SHT31;54011;50.772;7.730;2023-04-06T11:31:53;19.81;34.64
67093;SHT31;54011;50.772;7.730;2023-04-06T11:34:24;19.97;34.00
67093;SHT31;54011;50.772;7.730;2023-04-06T11:36:57;19.64;34.67
67093;SHT31;54011;50.772;7.730;2023-04-06T11:39:24;19.34;34.78
67093;SHT31;54011;50.772;7.730;2023-04-06T11:41:52;20.27;34.09
67093;SHT31;54011;50.772;7.730;2023-04-06T11:44:43;19.74;34.84
67093;SHT31;54011;50.772;7.730;2023-04-06T11:47:12;18.92;35.10
67093;SHT31;54011;50.772;7.730;2023-04-06T11:49:39;18.87;34.48
67093;SHT31;54011;50.772;7.730;2023-04-06T11:52:15;19.07;35.16
67093;SHT31;54011;50.772;7.730;2023-04-06T11:54:41;18.73;34.82
67093;SHT31;54011;50.772;7.730;2023-04-06T11:57:08;19.06;35.05
67093;SHT31;54011;50.772;7.730;2023-04-06T11:59:34;19.25;34.42
67093;SHT31;54011;50.772;7.730;2023-04-06T12:02:03;19.25;35.05
67093;SHT31;54011;50.772;7.730;2023-04-06T12:04:29;18.86;36.04
67093;SHT31;54011;50.772;7.730;2023-04-06T12:06:55;19.85;34.33
67093;SHT31;54011;50.772;7.730;2023-04-06T12:09:21;19.07;35.66
67093;SHT31;54011;50.772;7.730;2023-04-06T12:11:46;18.89;35.43
67093;SHT31;54011;50.772;7.730;2023-04-06T12:14:12;18.82;35.86
67093;SHT31;54011;50.772;7.730;2023-04-06T12:16:38;18.77;35.32
67093;SHT31;54011;50.772;7.730;2023-04-06T12:19:04;19.11;34.17
67093;SHT31;54011;50.772;7.730;2023-04-06T12:21:31;19.62;34.67
67093;SHT31;54011;50.772;7.730;2023-04-06T12:23:57;19.36;33.74
67093;SHT31;54011;50.772;7.730;2023-04-06T12:26:23;20.37;33.09
67093;SHT31;54011;50.772;7.730;2023-04-06T12:28:49;19.69;32.82
67093;SHT31;54011;50.772;7.730;2023-04-06T12:31:19;20.16;32.72
67093;SHT31;54011;50.772;7.730;2023-04-06T12:33:46;19.44;33.33
67093;SHT31;54011;50.772;7.730;2023-04-06T12:36:13;19.50;33.46
67093;SHT31;54011;50.772;7.730;2023-04-06T12:38:39;19.58;33.44
67093;SHT31;54011;50.772;7.730;2023-04-06T12:41:06;19.61;33.32
67093;SHT31;54011;50.772;7.730;2023-04-06T12:43:32;19.61;33.58
67093;SHT31;54011;50.772;7.730;2023-04-06T12:45:57;19.75;33.37
67093;SHT31;54011;50.772;7.730;2023-04-06T12:48:23;19.27;34.25
67093;SHT31;54011;50.772;7.730;2023-04-06T12:50:58;19.07;35.29
67093;SHT31;54011;50.772;7.730;2023-04-06T12:53:23;18.70;34.60
67093;SHT31;54011;50.772;7.730;2023-04-06T12:55:49;19.17;33.91
67093;SHT31;54011;50.772;7.730;2023-04-06T12:58:15;19.44;34.26
67093;SHT31;54011;50.772;7.730;2023-04-06T13:00:42;19.24;34.53
67093;SHT31;54011;50.772;7.730;2023-04-06T13:03:07;19.78;33.79
67093;SHT31;54011;50.772;7.730;2023-04-06T13:05:33;19.04;34.23
67093;SHT31;54011;50.772;7.730;2023-04-06T13:08:00;19.50;34.41
67093;SHT31;54011;50.772;7.730;2023-04-06T13:10:25;18.94;34.07
67093;SHT31;54011;50.772;7.730;2023-04-06T13:12:54;19.78;34.06
67093;SHT31;54011;50.772;7.730;2023-04-06T13:15:20;19.52;33.98
67093;SHT31;54011;50.772;7.730;2023-04-06T13:17:45;19.32;33.68
67093;SHT31;54011;50.772;7.730;2023-04-06T13:20:12;19.41;33.50
67093;SHT31;54011;50.772;7.730;2023-04-06T13:22:37;18.89;34.87
67093;SHT31;54011;50.772;7.730;2023-04-06T13:25:03;19.18;34.17
67093;SHT31;54011;50.772;7.730;2023-04-06T13:27:29;19.38;34.19
67093;SHT31;54011;50.772;7.730;2023-04-06T13:29:55;19.61;34.12
67093;SHT31;54011;50.772;7.730;2023-04-06T13:32:21;18.38;34.97
67093;SHT31;54011;50.772;7.730;2023-04-06T13:34:46;19.30;34.08
67093;SHT31;54011;50.772;7.730;2023-04-06T13:37:15;18.62;35.12
67093;SHT31;54011;50.772;7.730;2023-04-06T13:39:41;18.06;35.18
67093;SHT31;54011;50.772;7.730;2023-04-06T13:42:06;18.11;35.82
67093;SHT31;54011;50.772;7.730;2023-04-06T13:44:32;17.88;36.50
67093;SHT31;54011;50.772;7.730;2023-04-06T13:46:58;18.46;35.53
67093;SHT31;54011;50.772;7.730;2023-04-06T13:49:23;18.62;34.75
67093;SHT31;54011;50.772;7.730;2023-04-06T13:51:49;18.97;35.44
67093;SHT31;54011;50.772;7.730;2023-04-06T13:54:14;19.13;34.87
67093;SHT31;54011;50.772;7.730;2023-04-06T13:56:40;19.34;33.73
67093;SHT31;54011;50.772;7.730;2023-04-06T13:59:05;19.50;33.07
67093;SHT31;54011;50.772;7.730;2023-04-06T14:01:31;18.66;34.47
67093;SHT31;54011;50.772;7.730;2023-04-06T14:03:56;18.89;33.77
67093;SHT31;54011;50.772;7.730;2023-04-06T14:06:22;18.80;33.87
67093;SHT31;54011;50.772;7.730;2023-04-06T14:08:47;18.45;34.52
67093;SHT31;54011;50.772;7.730;2023-04-06T14:11:13;18.45;34.66
67093;SHT31;54011;50.772;7.730;2023-04-06T14:13:40;18.66;34.48
67093;SHT31;54011;50.772;7.730;2023-04-06T14:16:07;18.15;34.99
67093;SHT31;54011;50.772;7.730;2023-04-06T14:18:33;18.79;35.13
67093;SHT31;54011;50.772;7.730;2023-04-06T14:21:00;18.79;34.17
67093;SHT31;54011;50.772;7.730;2023-04-06T14:23:27;18.15;35.17
67093;SHT31;54011;50.772;7.730;2023-04-06T14:26:06;18.04;35.18
67093;SHT31;54011;50.772;7.730;2023-04-06T14:28:33;17.91;35.87
67093;SHT31;54011;50.772;7.730;2023-04-06T14:30:59;18.19;35.56
67093;SHT31;54011;50.772;7.730;2023-04-06T14:33:26;17.69;35.55
67093;SHT31;54011;50.772;7.730;2023-04-06T14:35:52;17.59;35.95
67093;SHT31;54011;50.772;7.730;2023-04-06T14:38:18;17.93;35.88
67093;SHT31;54011;50.772;7.730;2023-04-06T14:40:43;18.18;35.79
67093;SHT31;54011;50.772;7.730;2023-04-06T14:43:09;16.95;36.85
67093;SHT31;54011;50.772;7.730;2023-04-06T14:45:35;16.91;37.02
67093;SHT31;54011;50.772;7.730;2023-04-06T14:48:02;17.06;37.94
67093;SHT31;54011;50.772;7.730;2023-04-06T14:50:28;17.12;37.04
67093;SHT31;54011;50.772;7.730;2023-04-06T14:52:53;17.54;36.16
67093;SHT31;54011;50.772;7.730;2023-04-06T14:55:19;17.42;35.48
67093;SHT31;54011;50.772;7.730;2023-04-06T14:57:45;17.84;35.47
67093;SHT31;54011;50.772;7.730;2023-04-06T15:00:11;17.42;37.19
67093;SHT31;54011;50.772;7.730;2023-04-06T15:02:37;17.87;36.73
67093;SHT31;54011;50.772;7.730;2023-04-06T15:05:03;18.06;36.49
67093;SHT31;54011;50.772;7.730;2023-04-06T15:07:30;18.19;37.01
67093;SHT31;54011;50.772;7.730;2023-04-06T15:09:56;17.11;37.91
67093;SHT31;54011;50.772;7.730;2023-04-06T15:12:21;17.63;37.27
67093;SHT31;54011;50.772;7.730;2023-04-06T15:14:47;17.69;37.19
67093;SHT31;54011;50.772;7.730;2023-04-06T15:17:12;17.90;37.26
67093;SHT31;54011;50.772;7.730;2023-04-06T15:19:37;17.90;37.80
67093;SHT31;54011;50.772;7.730;2023-04-06T15:22:03;16.92;40.18
67093;SHT31;54011;50.772;7.730;2023-04-06T15:24:28;16.84;40.39
67093;SHT31;54011;50.772;7.730;2023-04-06T15:26:54;17.47;39.20
67093;SHT31;54011;50.772;7.730;2023-04-06T15:29:20;17.04;39.40
67093;SHT31;54011;50.772;7.730;2023-04-06T15:31:46;17.20;39.42
67093;SHT31;54011;50.772;7.730;2023-04-06T15:34:11;16.75;39.65
67093;SHT31;54011;50.772;7.730;2023-04-06T15:36:37;16.13;40.45
67093;SHT31;54011;50.772;7.730;2023-04-06T15:39:03;16.37;40.96
67093;SHT31;54011;50.772;7.730;2023-04-06T15:41:28;15.92;42.38
67093;SHT31;54011;50.772;7.730;2023-04-06T15:43:55;16.48;41.78
67093;SHT31;54011;50.772;7.730;2023-04-06T15:46:21;16.20;42.91
67093;SHT31;54011;50.772;7.730;2023-04-06T15:48:47;16.17;43.12
67093;SHT31;54011;50.772;7.730;2023-04-06T15:51:12;16.07;43.58